Terminal Aerodrome Forecast
Issued by NWS

Home | Current Version | Previous Version | Text Only | Print | Product List | Glossary Off
Versions: 1 2 3 4 5 6 7 8 9 10 11 12 13 14 15

045
FTUS42 KMHX 081644 AAB
TAFPGV
TAF AMD
KPGV 081644Z 0817/0912 31010KT P6SM SCT018 BKN040
      TEMPO 0817/0820 BKN015
     FM082300 33005KT P6SM SKC
      AMD LTD TO CLD VIS AND WIND=

USA.gov is the U.S. government's official web portal to all federal, state and local government web resources and services.